Time;durP1;ratioP1;P1;durP2;ratioP2;P2;SDS_P1;SDS_P2;PMS_P1;PMS_P2;Temp;Humidity;BMP_temperature;BMP_pressure;BME280_temperature;BME280_humidity;BME280_pressure;Samples;Min_cycle;Max_cycle;Signal;HPM_P1;HPM_P2
2022/01/11 00:01:04;;;;;;;3.73;3.17;;;;;;;;;;4400121;32;20422;-51
2022/01/11 00:03:30;;;;;;;8.50;4.83;;;;;;;;;;4401759;32;20253;-51
2022/01/11 00:06:16;;;;;;;3.20;2.43;;;;;;;;;;4400680;32;20225;-52
2022/01/11 00:08:44;;;;;;;5.57;3.63;;;;;;;;;;4401459;32;20222;-51
2022/01/11 00:11:09;;;;;;;3.97;2.70;;;;;;;;;;4399833;32;20205;-51
2022/01/11 00:13:38;;;;;;;8.97;4.47;;;;;;;;;;4401610;32;20667;-52
2022/01/11 00:16:05;;;;;;;4.57;2.70;;;;;;;;;;4394547;32;20241;-52
2022/01/11 00:18:30;;;;;;;3.33;2.23;;;;;;;;;;4401661;32;20739;-51
2022/01/11 00:20:56;;;;;;;4.27;2.77;;;;;;;;;;4401082;32;20266;-51
2022/01/11 00:25:48;;;;;;;4.20;2.33;;;;;;;;;;4401656;32;20213;-52
2022/01/11 00:28:16;;;;;;;6.47;3.63;;;;;;;;;;4402329;32;20702;-53
2022/01/11 00:30:44;;;;;;;3.47;2.03;;;;;;;;;;4401187;32;20448;-52
2022/01/11 00:33:15;;;;;;;3.70;2.80;;;;;;;;;;4402001;32;20265;-51
2022/01/11 00:35:47;;;;;;;5.87;3.53;;;;;;;;;;4401635;32;20291;-52
2022/01/11 00:38:16;;;;;;;7.53;4.53;;;;;;;;;;4403114;32;20242;-52
2022/01/11 00:41:06;;;;;;;4.93;3.23;;;;;;;;;;4401149;32;20360;-51
2022/01/11 00:43:33;;;;;;;6.13;3.93;;;;;;;;;;4389738;32;20249;-52
2022/01/11 00:45:59;;;;;;;11.47;3.20;;;;;;;;;;4401295;32;20228;-52
2022/01/11 00:48:25;;;;;;;6.73;3.40;;;;;;;;;;4402358;32;20256;-52
2022/01/11 00:50:51;;;;;;;4.13;2.60;;;;;;;;;;4401446;32;20391;-52
2022/01/11 00:53:18;;;;;;;3.63;2.33;;;;;;;;;;4401590;32;20253;-51
2022/01/11 00:55:47;;;;;;;1.70;1.60;;;;;;;;;;4400980;32;20275;-53
2022/01/11 00:58:12;;;;;;;3.57;2.53;;;;;;;;;;4401637;32;20718;-52
2022/01/11 01:00:38;;;;;;;5.47;3.23;;;;;;;;;;4401047;32;20244;-52
2022/01/11 01:03:05;;;;;;;6.03;3.63;;;;;;;;;;4401143;32;20257;-51
2022/01/11 01:05:30;;;;;;;5.83;2.50;;;;;;;;;;4401214;32;20205;-53
2022/01/11 01:07:56;;;;;;;3.40;2.40;;;;;;;;;;4401458;32;20745;-52
2022/01/11 01:10:35;;;;;;;5.67;3.33;;;;;;;;;;4401536;32;20295;-53
2022/01/11 01:13:05;;;;;;;4.77;3.30;;;;;;;;;;4387097;32;20360;-51
2022/01/11 01:15:31;;;;;;;4.83;3.47;;;;;;;;;;4396732;32;20365;-51
2022/01/11 01:17:56;;;;;;;2.30;1.77;;;;;;;;;;4401979;32;20627;-51
2022/01/11 01:20:22;;;;;;;2.97;1.40;;;;;;;;;;4403621;32;20320;-52
2022/01/11 01:22:50;;;;;;;2.43;1.70;;;;;;;;;;4403192;32;20229;-51
2022/01/11 01:25:20;;;;;;;1.33;1.23;;;;;;;;;;4403541;32;20637;-51
2022/01/11 01:27:45;;;;;;;2.33;1.80;;;;;;;;;;4403488;32;20252;-51
2022/01/11 01:30:11;;;;;;;2.80;1.80;;;;;;;;;;4403561;32;20293;-52
2022/01/11 01:32:37;;;;;;;6.40;3.20;;;;;;;;;;4403069;32;20649;-51
2022/01/11 01:35:05;;;;;;;4.37;2.20;;;;;;;;;;4406093;32;20233;-52
2022/01/11 01:37:30;;;;;;;7.00;1.90;;;;;;;;;;4415822;32;20405;-52
2022/01/11 01:39:56;;;;;;;2.83;1.77;;;;;;;;;;4389636;32;20316;-53
2022/01/11 01:42:28;;;;;;;4.63;2.40;;;;;;;;;;4396558;32;20298;-53
2022/01/11 01:44:54;;;;;;;6.63;2.87;;;;;;;;;;4403089;32;20230;-52
2022/01/11 01:47:20;;;;;;;9.23;4.43;;;;;;;;;;4403545;32;20606;-54
2022/01/11 01:49:45;;;;;;;6.57;3.43;;;;;;;;;;4403336;32;20340;-52
2022/01/11 01:52:14;;;;;;;5.13;3.20;;;;;;;;;;4402954;32;20308;-54
2022/01/11 01:54:39;;;;;;;3.83;1.70;;;;;;;;;;4402960;32;20249;-52
2022/01/11 01:57:05;;;;;;;5.97;2.43;;;;;;;;;;4403187;32;20316;-52
2022/01/11 01:59:30;;;;;;;10.77;5.13;;;;;;;;;;4402967;32;20299;-52
2022/01/11 02:01:57;;;;;;;4.57;2.60;;;;;;;;;;4402762;32;20229;-52
2022/01/11 02:04:23;;;;;;;2.97;2.50;;;;;;;;;;4403268;32;20258;-54
2022/01/11 02:06:48;;;;;;;5.53;3.20;;;;;;;;;;4402905;32;20240;-52
2022/01/11 02:09:17;;;;;;;5.13;3.17;;;;;;;;;;4403556;32;20307;-54
2022/01/11 02:11:43;;;;;;;3.57;2.17;;;;;;;;;;4402695;32;20247;-52
2022/01/11 02:14:09;;;;;;;3.27;2.00;;;;;;;;;;4402464;32;20233;-53
2022/01/11 02:16:35;;;;;;;1.60;1.50;;;;;;;;;;4402580;32;20255;-52
2022/01/11 02:19:01;;;;;;;3.70;1.70;;;;;;;;;;4403190;32;20389;-52
2022/01/11 02:21:27;;;;;;;1.17;1.07;;;;;;;;;;4402341;32;20225;-52
2022/01/11 02:23:53;;;;;;;1.40;1.30;;;;;;;;;;4402144;32;20257;-53
2022/01/11 02:26:19;;;;;;;1.70;1.33;;;;;;;;;;4402726;32;20201;-52
2022/01/11 02:28:45;;;;;;;1.77;1.37;;;;;;;;;;4402092;32;20630;-52
2022/01/11 02:31:13;;;;;;;5.27;2.83;;;;;;;;;;4387456;32;20277;-52
2022/01/11 02:33:44;;;;;;;4.03;2.70;;;;;;;;;;4399613;32;20654;-52
2022/01/11 02:36:22;;;;;;;2.63;2.10;;;;;;;;;;4402507;32;20721;-52
2022/01/11 02:38:50;;;;;;;4.53;1.60;;;;;;;;;;4402361;32;20221;-52
2022/01/11 02:41:16;;;;;;;3.70;2.43;;;;;;;;;;4403077;32;20568;-52
2022/01/11 02:43:43;;;;;;;4.73;2.50;;;;;;;;;;4400991;32;20688;-53
2022/01/11 02:46:10;;;;;;;4.67;3.00;;;;;;;;;;4401445;32;20214;-53
2022/01/11 02:48:37;;;;;;;5.93;3.67;;;;;;;;;;4401401;32;20762;-54
2022/01/11 02:51:04;;;;;;;5.33;2.53;;;;;;;;;;4401181;32;20267;-52
2022/01/11 02:53:29;;;;;;;4.80;2.70;;;;;;;;;;4398876;32;20313;-52
2022/01/11 02:55:55;;;;;;;3.77;2.30;;;;;;;;;;4399591;32;20304;-51
2022/01/11 02:58:21;;;;;;;2.53;1.57;;;;;;;;;;4398238;32;20320;-51
2022/01/11 03:00:46;;;;;;;3.23;1.73;;;;;;;;;;4403099;32;20297;-51
2022/01/11 03:03:15;;;;;;;2.70;2.10;;;;;;;;;;4397196;32;20266;-51
2022/01/11 03:05:55;;;;;;;3.87;2.63;;;;;;;;;;4401146;32;20210;-52
2022/01/11 03:08:22;;;;;;;2.50;2.17;;;;;;;;;;4389965;32;20267;-52
2022/01/11 03:10:48;;;;;;;3.43;2.13;;;;;;;;;;4403314;32;20214;-50
2022/01/11 03:13:16;;;;;;;3.37;2.43;;;;;;;;;;4402162;32;20233;-52
2022/01/11 03:15:42;;;;;;;4.67;3.10;;;;;;;;;;4402679;32;20739;-52
2022/01/11 03:18:09;;;;;;;3.90;2.57;;;;;;;;;;4402549;32;20294;-52
2022/01/11 03:20:36;;;;;;;2.87;1.77;;;;;;;;;;4402602;32;20254;-52
2022/01/11 03:23:02;;;;;;;2.00;1.70;;;;;;;;;;4387802;32;20446;-52
2022/01/11 03:25:28;;;;;;;2.30;1.60;;;;;;;;;;4402799;32;20197;-52
2022/01/11 03:27:53;;;;;;;1.80;1.40;;;;;;;;;;4402885;32;20345;-53
2022/01/11 03:30:19;;;;;;;1.93;1.50;;;;;;;;;;4398651;32;20653;-53
2022/01/11 03:32:45;;;;;;;2.50;1.90;;;;;;;;;;4387489;32;20304;-53
2022/01/11 03:35:12;;;;;;;2.90;2.30;;;;;;;;;;4390062;32;20396;-52
2022/01/11 03:37:40;;;;;;;2.30;1.70;;;;;;;;;;4402368;32;20240;-53
2022/01/11 03:40:09;;;;;;;1.73;1.43;;;;;;;;;;4402646;32;20291;-53
2022/01/11 03:42:36;;;;;;;1.77;1.63;;;;;;;;;;4388858;32;20229;-53
2022/01/11 03:45:03;;;;;;;1.80;1.50;;;;;;;;;;4402333;32;20256;-53
2022/01/11 03:47:29;;;;;;;2.17;1.83;;;;;;;;;;4402672;32;20239;-53
2022/01/11 03:49:54;;;;;;;2.63;2.00;;;;;;;;;;4402707;32;20640;-53
2022/01/11 03:52:20;;;;;;;2.40;1.80;;;;;;;;;;4402828;32;20808;-53
2022/01/11 03:57:20;;;;;;;1.80;1.60;;;;;;;;;;4402590;32;20670;-53
2022/01/11 03:59:46;;;;;;;1.40;1.30;;;;;;;;;;4402853;32;20307;-52
2022/01/11 04:02:12;;;;;;;4.50;1.63;;;;;;;;;;4402386;32;20209;-51
2022/01/11 04:04:37;;;;;;;1.73;1.50;;;;;;;;;;4402390;32;20304;-53
2022/01/11 04:07:03;;;;;;;1.73;1.50;;;;;;;;;;4402142;32;20717;-53
2022/01/11 04:09:29;;;;;;;2.37;1.80;;;;;;;;;;4401932;32;20294;-51
2022/01/11 04:11:55;;;;;;;2.70;2.00;;;;;;;;;;4402195;32;20226;-51
2022/01/11 04:14:21;;;;;;;3.27;2.00;;;;;;;;;;4402153;32;20233;-51
2022/01/11 04:16:47;;;;;;;2.53;1.80;;;;;;;;;;4400976;32;20221;-51
2022/01/11 04:19:13;;;;;;;2.80;1.57;;;;;;;;;;4402130;32;20312;-51
2022/01/11 04:21:38;;;;;;;1.90;1.70;;;;;;;;;;4402382;32;20241;-52
2022/01/11 04:24:04;;;;;;;2.27;1.97;;;;;;;;;;4402312;32;20257;-51
2022/01/11 04:26:29;;;;;;;3.27;1.40;;;;;;;;;;4401977;32;20549;-50
2022/01/11 04:28:55;;;;;;;1.77;1.67;;;;;;;;;;4402509;32;20340;-52
2022/01/11 04:31:20;;;;;;;2.03;1.50;;;;;;;;;;4402553;32;20311;-51
2022/01/11 04:33:46;;;;;;;1.97;1.63;;;;;;;;;;4402076;32;20380;-51
2022/01/11 04:36:14;;;;;;;1.70;1.00;;;;;;;;;;4412671;32;20228;-51
2022/01/11 04:38:39;;;;;;;2.10;1.53;;;;;;;;;;4417211;32;20380;-52
2022/01/11 04:41:05;;;;;;;2.07;1.70;;;;;;;;;;4415686;32;20228;-51
2022/01/11 04:43:31;;;;;;;2.87;2.00;;;;;;;;;;4401816;32;20300;-52
2022/01/11 04:45:57;;;;;;;5.10;2.83;;;;;;;;;;4401899;32;20200;-54
2022/01/11 04:48:23;;;;;;;2.83;1.93;;;;;;;;;;4402070;32;20214;-52
2022/01/11 04:50:49;;;;;;;3.67;2.47;;;;;;;;;;4401650;32;20234;-52
2022/01/11 04:53:14;;;;;;;7.03;4.10;;;;;;;;;;4404652;32;20359;-53
2022/01/11 04:55:40;;;;;;;5.17;3.23;;;;;;;;;;4404828;32;20209;-53
2022/01/11 04:58:06;;;;;;;4.73;2.10;;;;;;;;;;4403640;32;20291;-53
2022/01/11 05:00:31;;;;;;;5.77;3.27;;;;;;;;;;4404281;32;20236;-51
2022/01/11 05:02:58;;;;;;;3.13;2.20;;;;;;;;;;4391285;32;20237;-52
2022/01/11 05:05:28;;;;;;;4.17;2.40;;;;;;;;;;4404532;32;20201;-52
2022/01/11 05:07:54;;;;;;;1.77;1.60;;;;;;;;;;4403992;32;20339;-52
2022/01/11 05:10:20;;;;;;;2.73;2.03;;;;;;;;;;4404989;32;20268;-53
2022/01/11 05:12:45;;;;;;;3.30;2.50;;;;;;;;;;4404540;32;20272;-52
2022/01/11 05:15:13;;;;;;;3.20;2.63;;;;;;;;;;4404686;32;20313;-51
2022/01/11 05:17:39;;;;;;;7.73;4.63;;;;;;;;;;4390535;32;20229;-52
2022/01/11 05:20:06;;;;;;;4.53;2.43;;;;;;;;;;4404930;32;20257;-52
2022/01/11 05:22:33;;;;;;;3.20;2.13;;;;;;;;;;4404584;32;20308;-52
2022/01/11 05:24:58;;;;;;;8.07;4.40;;;;;;;;;;4404447;32;20339;-52
2022/01/11 05:27:24;;;;;;;10.43;3.63;;;;;;;;;;4404642;32;20276;-53
2022/01/11 05:29:50;;;;;;;4.03;2.20;;;;;;;;;;4404286;32;20345;-52
2022/01/11 05:32:16;;;;;;;4.77;2.93;;;;;;;;;;4404184;32;20396;-52
2022/01/11 05:34:41;;;;;;;14.70;6.57;;;;;;;;;;4404017;32;20367;-51
2022/01/11 05:37:07;;;;;;;2.20;1.97;;;;;;;;;;4404129;32;20285;-54
2022/01/11 05:39:32;;;;;;;5.13;2.37;;;;;;;;;;4403325;32;20284;-51
2022/01/11 05:41:59;;;;;;;6.33;3.77;;;;;;;;;;4403853;32;20198;-53
2022/01/11 05:44:25;;;;;;;18.83;10.57;;;;;;;;;;4404172;32;20248;-52
2022/01/11 05:46:51;;;;;;;8.97;5.90;;;;;;;;;;4403815;32;20792;-52
2022/01/11 05:49:17;;;;;;;4.80;3.30;;;;;;;;;;4404200;32;20245;-52
2022/01/11 05:51:42;;;;;;;10.60;5.13;;;;;;;;;;4403717;32;20205;-52
2022/01/11 05:54:08;;;;;;;8.77;3.90;;;;;;;;;;4403904;32;20251;-52
2022/01/11 05:56:33;;;;;;;11.17;5.23;;;;;;;;;;4403578;32;20221;-52
2022/01/11 05:58:59;;;;;;;8.60;3.80;;;;;;;;;;4403531;32;20217;-53
2022/01/11 06:01:24;;;;;;;9.70;5.27;;;;;;;;;;4403829;32;20293;-53
2022/01/11 06:03:50;;;;;;;4.93;2.17;;;;;;;;;;4401420;32;20652;-53
2022/01/11 06:06:15;;;;;;;6.30;2.93;;;;;;;;;;4402213;32;20632;-53
2022/01/11 06:08:41;;;;;;;4.43;2.60;;;;;;;;;;4402955;32;20308;-53
2022/01/11 06:11:07;;;;;;;8.97;3.97;;;;;;;;;;4389560;32;20271;-50
2022/01/11 06:13:33;;;;;;;23.20;11.50;;;;;;;;;;4403001;32;20299;-52
2022/01/11 06:15:59;;;;;;;20.47;12.17;;;;;;;;;;4402628;32;20205;-50
2022/01/11 06:18:24;;;;;;;16.53;9.93;;;;;;;;;;4403327;32;20244;-54
2022/01/11 06:20:50;;;;;;;8.80;5.10;;;;;;;;;;4403045;32;20588;-53
2022/01/11 06:23:15;;;;;;;8.60;6.07;;;;;;;;;;4403516;32;20778;-53
2022/01/11 06:25:41;;;;;;;12.07;6.80;;;;;;;;;;4402889;32;20784;-53
2022/01/11 06:28:06;;;;;;;12.73;6.37;;;;;;;;;;4388487;32;20613;-54
2022/01/11 06:30:32;;;;;;;13.40;8.90;;;;;;;;;;4401567;32;20271;-53
2022/01/11 06:32:57;;;;;;;12.53;8.27;;;;;;;;;;4403198;32;20313;-53
2022/01/11 06:35:23;;;;;;;18.57;9.80;;;;;;;;;;4402418;32;20240;-53
2022/01/11 06:37:49;;;;;;;6.23;4.03;;;;;;;;;;4402792;32;20226;-53
2022/01/11 06:40:17;;;;;;;10.17;5.20;;;;;;;;;;4403265;32;20221;-52
2022/01/11 06:42:47;;;;;;;7.43;4.23;;;;;;;;;;4402433;32;20279;-52
2022/01/11 06:45:14;;;;;;;7.60;4.47;;;;;;;;;;4402799;32;20651;-53
2022/01/11 06:47:40;;;;;;;10.20;4.60;;;;;;;;;;4403018;32;20252;-52
2022/01/11 06:50:07;;;;;;;11.70;5.43;;;;;;;;;;4403398;32;20272;-52
2022/01/11 06:52:33;;;;;;;7.20;3.63;;;;;;;;;;4403127;32;20613;-51
2022/01/11 06:54:58;;;;;;;4.67;3.30;;;;;;;;;;4403176;32;20308;-52
2022/01/11 06:57:24;;;;;;;6.93;3.27;;;;;;;;;;4402953;32;20398;-51
2022/01/11 06:59:50;;;;;;;8.53;5.53;;;;;;;;;;4402534;32;20292;-51
2022/01/11 07:02:15;;;;;;;6.53;3.53;;;;;;;;;;4402715;32;20338;-51
2022/01/11 07:04:41;;;;;;;5.37;3.27;;;;;;;;;;4402659;32;20312;-52
2022/01/11 07:07:07;;;;;;;10.30;6.23;;;;;;;;;;4402944;32;20296;-52
2022/01/11 07:09:34;;;;;;;7.53;5.30;;;;;;;;;;4402243;32;20255;-51
2022/01/11 07:11:59;;;;;;;14.90;4.60;;;;;;;;;;4401813;32;20329;-52
2022/01/11 07:14:25;;;;;;;13.47;7.00;;;;;;;;;;4402890;32;20233;-50
2022/01/11 07:16:50;;;;;;;19.27;8.57;;;;;;;;;;4402076;32;20459;-51
2022/01/11 07:19:16;;;;;;;26.50;9.63;;;;;;;;;;4403249;32;20225;-52
2022/01/11 07:21:44;;;;;;;14.57;7.17;;;;;;;;;;4398846;32;20279;-52
2022/01/11 07:24:11;;;;;;;29.27;11.37;;;;;;;;;;4402429;32;20570;-51
2022/01/11 07:26:36;;;;;;;24.67;10.97;;;;;;;;;;4401928;32;20232;-51
2022/01/11 07:29:03;;;;;;;18.30;7.53;;;;;;;;;;4402024;32;20650;-51
2022/01/11 07:31:29;;;;;;;14.63;7.00;;;;;;;;;;4399780;32;20263;-51
2022/01/11 07:33:55;;;;;;;49.60;21.77;;;;;;;;;;4401508;32;20237;-53
2022/01/11 07:36:20;;;;;;;32.83;13.70;;;;;;;;;;4401638;32;20288;-52
2022/01/11 07:38:45;;;;;;;14.33;6.73;;;;;;;;;;4401370;32;20282;-52
2022/01/11 07:41:11;;;;;;;16.37;8.27;;;;;;;;;;4410104;32;20296;-52
2022/01/11 07:43:36;;;;;;;21.40;10.07;;;;;;;;;;4412177;32;20233;-52
2022/01/11 07:46:02;;;;;;;19.83;9.83;;;;;;;;;;4415058;32;20225;-51
2022/01/11 07:48:28;;;;;;;17.67;7.50;;;;;;;;;;4391094;32;20241;-52
2022/01/11 07:50:53;;;;;;;34.43;10.67;;;;;;;;;;4400677;32;20233;-52
2022/01/11 07:53:19;;;;;;;12.53;7.30;;;;;;;;;;4393811;32;20252;-53
2022/01/11 07:55:44;;;;;;;37.93;15.27;;;;;;;;;;4396925;32;20275;-52
2022/01/11 07:58:10;;;;;;;30.23;17.57;;;;;;;;;;4393099;32;20394;-52
2022/01/11 08:00:35;;;;;;;37.47;18.37;;;;;;;;;;4397198;32;20205;-52
2022/01/11 08:03:01;;;;;;;33.40;15.90;;;;;;;;;;4396151;32;20316;-52
2022/01/11 08:05:26;;;;;;;21.83;10.90;;;;;;;;;;4390819;32;20301;-52
2022/01/11 08:07:52;;;;;;;19.93;11.37;;;;;;;;;;4390511;32;20707;-51
2022/01/11 08:10:18;;;;;;;13.07;5.53;;;;;;;;;;4396457;32;20309;-51
2022/01/11 08:12:45;;;;;;;16.07;7.40;;;;;;;;;;4396874;32;20225;-52
2022/01/11 08:15:10;;;;;;;10.93;5.77;;;;;;;;;;4386104;32;20322;-50
2022/01/11 08:17:36;;;;;;;11.33;7.37;;;;;;;;;;4399392;32;20248;-52
2022/01/11 08:20:03;;;;;;;30.13;14.63;;;;;;;;;;4386810;32;20221;-52
2022/01/11 08:22:29;;;;;;;38.23;19.27;;;;;;;;;;4396230;32;20228;-52
2022/01/11 08:24:54;;;;;;;53.63;22.77;;;;;;;;;;4399532;32;20610;-52
2022/01/11 08:27:22;;;;;;;15.20;7.20;;;;;;;;;;4395791;32;20745;-52
2022/01/11 08:29:48;;;;;;;16.97;8.77;;;;;;;;;;4391319;32;20631;-52
2022/01/11 08:32:14;;;;;;;15.23;7.70;;;;;;;;;;4395424;32;20328;-54
2022/01/11 08:34:40;;;;;;;34.87;19.03;;;;;;;;;;4400248;32;20300;-53
2022/01/11 08:37:05;;;;;;;16.80;11.07;;;;;;;;;;4385069;32;20701;-52
2022/01/11 08:39:31;;;;;;;23.53;15.37;;;;;;;;;;4400534;32;20361;-53
2022/01/11 08:41:57;;;;;;;30.17;17.90;;;;;;;;;;4383528;32;20351;-52
2022/01/11 08:44:24;;;;;;;33.80;13.43;;;;;;;;;;4397622;32;20328;-52
2022/01/11 08:46:50;;;;;;;10.73;6.63;;;;;;;;;;4398381;32;20243;-53
2022/01/11 08:49:16;;;;;;;9.30;6.13;;;;;;;;;;4399971;32;20283;-53
2022/01/11 08:51:42;;;;;;;8.97;6.37;;;;;;;;;;4397945;32;20271;-52
2022/01/11 08:54:09;;;;;;;13.30;7.27;;;;;;;;;;4399849;32;20214;-52
2022/01/11 08:56:34;;;;;;;12.80;7.87;;;;;;;;;;4397762;32;20248;-52
2022/01/11 08:59:00;;;;;;;12.80;7.30;;;;;;;;;;4399433;32;20229;-53
2022/01/11 09:01:31;;;;;;;21.17;9.93;;;;;;;;;;4397383;32;20240;-52
2022/01/11 09:03:56;;;;;;;26.60;16.33;;;;;;;;;;4400044;32;20645;-52
2022/01/11 09:06:21;;;;;;;28.33;13.47;;;;;;;;;;4395116;32;20288;-51
2022/01/11 09:08:47;;;;;;;29.43;11.20;;;;;;;;;;4397877;32;20253;-52
2022/01/11 09:11:12;;;;;;;34.17;18.60;;;;;;;;;;4397958;32;20259;-53
2022/01/11 09:13:38;;;;;;;40.83;19.37;;;;;;;;;;4397195;32;20264;-53
2022/01/11 09:16:05;;;;;;;6.90;4.87;;;;;;;;;;4385687;32;20249;-52
2022/01/11 09:18:31;;;;;;;14.40;7.37;;;;;;;;;;4398556;32;20380;-53
2022/01/11 09:21:00;;;;;;;19.77;9.30;;;;;;;;;;4399973;32;20234;-53
2022/01/11 09:23:30;;;;;;;15.40;8.20;;;;;;;;;;4398748;32;20626;-52
2022/01/11 09:25:55;;;;;;;16.50;8.27;;;;;;;;;;4386478;32;20654;-52
2022/01/11 09:28:22;;;;;;;16.10;6.77;;;;;;;;;;4399160;32;20400;-52
2022/01/11 09:30:48;;;;;;;18.37;8.70;;;;;;;;;;4396086;32;20276;-53
2022/01/11 09:33:13;;;;;;;26.03;10.27;;;;;;;;;;4392655;32;20750;-51
2022/01/11 09:35:39;;;;;;;30.40;14.43;;;;;;;;;;4399328;32;20308;-52
2022/01/11 09:38:04;;;;;;;19.17;7.33;;;;;;;;;;4397310;32;20566;-52
2022/01/11 09:40:30;;;;;;;13.97;6.80;;;;;;;;;;4380208;32;20298;-51
2022/01/11 09:42:55;;;;;;;11.67;7.00;;;;;;;;;;4397551;32;20233;-53
2022/01/11 09:45:21;;;;;;;12.07;7.77;;;;;;;;;;4402925;32;20795;-52
2022/01/11 09:47:47;;;;;;;20.70;11.63;;;;;;;;;;4402851;32;20247;-52
2022/01/11 09:50:14;;;;;;;11.10;5.87;;;;;;;;;;4397333;32;20259;-51
2022/01/11 09:52:40;;;;;;;6.67;4.60;;;;;;;;;;4399237;32;20665;-52
2022/01/11 09:55:08;;;;;;;12.67;6.07;;;;;;;;;;4400407;32;20688;-52
2022/01/11 09:57:33;;;;;;;8.13;5.73;;;;;;;;;;4401888;32;20339;-53
2022/01/11 09:59:59;;;;;;;11.90;5.77;;;;;;;;;;4402138;32;20406;-53
2022/01/11 10:02:25;;;;;;;7.57;4.80;;;;;;;;;;4398991;32;20228;-52
2022/01/11 10:04:59;;;;;;;6.33;4.10;;;;;;;;;;4388068;32;20304;-52
2022/01/11 10:07:52;;;;;;;5.87;4.30;;;;;;;;;;4399166;32;20311;-52
2022/01/11 10:10:24;;;;;;;9.10;5.30;;;;;;;;;;4400273;32;20546;-51
2022/01/11 10:12:52;;;;;;;9.20;4.80;;;;;;;;;;4402449;32;20267;-52
2022/01/11 10:15:34;;;;;;;7.47;5.20;;;;;;;;;;4402260;32;20643;-52
2022/01/11 10:18:00;;;;;;;8.13;4.67;;;;;;;;;;4391526;32;20244;-51
2022/01/11 10:20:27;;;;;;;7.77;3.60;;;;;;;;;;4401701;32;20290;-51
2022/01/11 10:22:52;;;;;;;8.70;5.73;;;;;;;;;;4391203;32;20639;-52
2022/01/11 10:25:18;;;;;;;8.53;4.90;;;;;;;;;;4398545;32;20217;-55
2022/01/11 10:27:56;;;;;;;6.97;4.83;;;;;;;;;;4401224;32;20251;-52
2022/01/11 10:30:23;;;;;;;6.53;4.33;;;;;;;;;;4401021;32;20631;-52
2022/01/11 10:32:51;;;;;;;6.10;4.50;;;;;;;;;;4400005;32;20682;-53
2022/01/11 10:35:25;;;;;;;11.77;7.43;;;;;;;;;;4399409;32;20205;-52
2022/01/11 10:37:54;;;;;;;5.57;3.37;;;;;;;;;;4396673;32;20308;-55
2022/01/11 10:40:24;;;;;;;28.07;12.87;;;;;;;;;;4400771;32;20186;-54
2022/01/11 10:42:56;;;;;;;15.30;6.10;;;;;;;;;;4400224;32;20636;-51
2022/01/11 10:45:35;;;;;;;8.90;5.13;;;;;;;;;;4408999;32;20308;-52
2022/01/11 10:48:17;;;;;;;15.03;7.00;;;;;;;;;;4402066;32;20280;-52
2022/01/11 10:50:45;;;;;;;9.13;5.40;;;;;;;;;;4395193;32;20281;-51
2022/01/11 10:53:22;;;;;;;7.63;4.93;;;;;;;;;;4399159;32;20346;-54
2022/01/11 10:55:50;;;;;;;13.60;6.03;;;;;;;;;;4401826;32;20213;-56
2022/01/11 10:58:16;;;;;;;17.67;8.43;;;;;;;;;;4401031;32;20314;-53
2022/01/11 11:00:44;;;;;;;9.20;5.27;;;;;;;;;;4399841;32;20309;-53
2022/01/11 11:03:17;;;;;;;27.07;12.50;;;;;;;;;;4398525;32;20347;-51
2022/01/11 11:05:58;;;;;;;6.23;3.73;;;;;;;;;;4393655;32;20237;-52
2022/01/11 11:08:26;;;;;;;23.27;9.90;;;;;;;;;;4393672;32;20226;-53
2022/01/11 11:11:00;;;;;;;15.50;9.40;;;;;;;;;;4400840;32;20234;-52
2022/01/11 11:13:27;;;;;;;55.57;22.70;;;;;;;;;;4400467;32;20238;-52
2022/01/11 11:16:12;;;;;;;33.67;14.00;;;;;;;;;;4390396;32;20243;-53
2022/01/11 11:18:41;;;;;;;36.80;17.70;;;;;;;;;;4390264;32;20292;-51
2022/01/11 11:21:12;;;;;;;15.80;7.87;;;;;;;;;;4397657;32;20245;-53
2022/01/11 11:23:38;;;;;;;25.03;11.73;;;;;;;;;;4393524;32;20382;-54
2022/01/11 11:26:03;;;;;;;26.97;11.03;;;;;;;;;;4399801;32;20670;-52
2022/01/11 11:28:29;;;;;;;13.50;7.70;;;;;;;;;;4395049;32;20633;-52
2022/01/11 11:30:55;;;;;;;21.60;7.80;;;;;;;;;;4392637;32;20230;-53
2022/01/11 11:33:21;;;;;;;18.57;10.03;;;;;;;;;;4397245;32;20935;-52
2022/01/11 11:35:49;;;;;;;17.30;8.33;;;;;;;;;;4399775;32;20622;-51
2022/01/11 11:38:15;;;;;;;32.30;14.97;;;;;;;;;;4396811;32;20291;-52
2022/01/11 11:40:41;;;;;;;20.17;12.07;;;;;;;;;;4399889;32;20299;-52
2022/01/11 11:43:10;;;;;;;12.50;7.37;;;;;;;;;;4385528;32;20279;-52
2022/01/11 11:45:37;;;;;;;21.80;13.67;;;;;;;;;;4398064;32;20334;-53
2022/01/11 11:48:03;;;;;;;18.47;12.13;;;;;;;;;;4400666;32;20255;-51
2022/01/11 11:50:28;;;;;;;21.07;9.23;;;;;;;;;;4400333;32;20214;-52
2022/01/11 11:52:54;;;;;;;20.53;12.67;;;;;;;;;;4390753;32;20627;-54
2022/01/11 11:55:24;;;;;;;20.73;10.00;;;;;;;;;;4400022;32;20295;-53
2022/01/11 11:57:53;;;;;;;23.40;12.67;;;;;;;;;;4399280;32;20221;-52
2022/01/11 12:00:43;;;;;;;15.67;8.13;;;;;;;;;;4398437;32;20969;-53
2022/01/11 12:03:27;;;;;;;15.20;8.67;;;;;;;;;;4394562;32;20260;-54
2022/01/11 12:05:54;;;;;;;7.03;4.77;;;;;;;;;;4380105;32;20654;-53
2022/01/11 12:08:41;;;;;;;19.50;9.17;;;;;;;;;;4393213;32;20268;-53
2022/01/11 12:11:07;;;;;;;17.03;8.37;;;;;;;;;;4398019;32;20214;-53
2022/01/11 12:13:49;;;;;;;21.20;10.87;;;;;;;;;;4398368;32;20238;-53
2022/01/11 12:16:38;;;;;;;30.97;15.43;;;;;;;;;;4392224;32;20275;-53
2022/01/11 12:19:09;;;;;;;14.57;9.13;;;;;;;;;;4392852;32;20770;-53
2022/01/11 12:21:52;;;;;;;27.30;10.70;;;;;;;;;;4396016;32;21866;-52
2022/01/11 12:24:39;;;;;;;39.90;17.57;;;;;;;;;;4398081;32;20777;-53
2022/01/11 12:27:09;;;;;;;20.37;10.53;;;;;;;;;;4397518;32;20222;-53
2022/01/11 12:29:34;;;;;;;26.77;12.70;;;;;;;;;;4399454;32;20681;-52
2022/01/11 12:32:06;;;;;;;30.57;14.40;;;;;;;;;;4400756;32;20284;-54
2022/01/11 12:34:48;;;;;;;39.10;17.87;;;;;;;;;;4393392;32;20421;-53
2022/01/11 12:37:41;;;;;;;26.10;12.87;;;;;;;;;;4400628;32;20270;-52
2022/01/11 12:40:22;;;;;;;24.37;13.27;;;;;;;;;;4398715;32;20229;-53
2022/01/11 12:42:53;;;;;;;32.43;18.03;;;;;;;;;;4394549;32;20268;-52
2022/01/11 12:45:58;;;;;;;19.83;12.33;;;;;;;;;;4399569;32;20314;-52
2022/01/11 12:48:42;;;;;;;14.47;8.33;;;;;;;;;;4399666;32;20253;-52
2022/01/11 12:51:08;;;;;;;17.73;10.30;;;;;;;;;;4400133;32;20208;-52
2022/01/11 12:53:34;;;;;;;14.73;6.80;;;;;;;;;;4395783;32;20263;-52
2022/01/11 12:55:59;;;;;;;19.10;10.27;;;;;;;;;;4398609;32;20284;-51
2022/01/11 12:58:25;;;;;;;16.23;8.90;;;;;;;;;;4396605;32;20501;-51
2022/01/11 13:00:52;;;;;;;14.90;8.97;;;;;;;;;;4400306;32;20254;-51
2022/01/11 13:03:17;;;;;;;19.63;9.47;;;;;;;;;;4389691;32;20291;-51
2022/01/11 13:05:44;;;;;;;14.47;6.90;;;;;;;;;;4383443;32;20304;-52
2022/01/11 13:08:10;;;;;;;22.17;9.87;;;;;;;;;;4396641;32;20443;-52
2022/01/11 13:10:36;;;;;;;23.27;10.80;;;;;;;;;;4399618;32;20333;-52
2022/01/11 13:13:15;;;;;;;18.27;10.07;;;;;;;;;;4400479;32;20668;-51
2022/01/11 13:15:48;;;;;;;14.77;8.90;;;;;;;;;;4400143;32;20261;-51
2022/01/11 13:18:15;;;;;;;25.63;12.73;;;;;;;;;;4394018;32;20225;-51
2022/01/11 13:20:56;;;;;;;16.57;8.13;;;;;;;;;;4395007;32;20260;-51
2022/01/11 13:23:33;;;;;;;26.00;10.23;;;;;;;;;;4400339;32;20328;-51
2022/01/11 13:26:05;;;;;;;20.20;8.90;;;;;;;;;;4396073;32;20255;-52
2022/01/11 13:28:53;;;;;;;24.40;13.90;;;;;;;;;;4394835;32;20246;-51
2022/01/11 13:31:36;;;;;;;37.27;16.20;;;;;;;;;;4398518;32;20361;-52
2022/01/11 13:34:11;;;;;;;25.17;13.77;;;;;;;;;;4402258;32;20342;-52
2022/01/11 13:36:39;;;;;;;23.70;10.87;;;;;;;;;;4396647;32;20288;-50
2022/01/11 13:39:09;;;;;;;25.63;11.87;;;;;;;;;;4399165;32;20682;-53
2022/01/11 13:41:48;;;;;;;37.50;14.67;;;;;;;;;;4396636;32;20209;-52
2022/01/11 13:44:38;;;;;;;28.07;12.80;;;;;;;;;;4399732;32;20397;-53
2022/01/11 13:47:08;;;;;;;63.37;25.33;;;;;;;;;;4392772;32;20265;-52
2022/01/11 13:49:39;;;;;;;31.20;16.43;;;;;;;;;;4400994;32;20395;-54
2022/01/11 13:52:10;;;;;;;32.80;15.43;;;;;;;;;;4401815;32;20249;-52
2022/01/11 13:54:41;;;;;;;18.30;9.87;;;;;;;;;;4401793;32;20552;-52
2022/01/11 13:57:12;;;;;;;23.13;11.63;;;;;;;;;;4391596;32;20307;-54
2022/01/11 13:59:38;;;;;;;32.90;12.00;;;;;;;;;;4401329;32;20253;-52
2022/01/11 14:02:18;;;;;;;24.50;10.43;;;;;;;;;;4388240;32;20338;-52
2022/01/11 14:04:51;;;;;;;26.17;10.67;;;;;;;;;;4388981;32;20229;-53
2022/01/11 14:07:24;;;;;;;17.80;9.50;;;;;;;;;;4401693;32;20249;-52
2022/01/11 14:09:58;;;;;;;16.00;9.07;;;;;;;;;;4401247;32;20339;-53
2022/01/11 14:12:30;;;;;;;13.90;7.10;;;;;;;;;;4402925;32;20248;-52
2022/01/11 14:15:00;;;;;;;13.37;8.27;;;;;;;;;;4387800;32;20233;-53
2022/01/11 14:17:30;;;;;;;16.13;7.63;;;;;;;;;;4400834;32;20214;-53
2022/01/11 14:20:00;;;;;;;35.37;14.73;;;;;;;;;;4394162;32;20268;-52
2022/01/11 14:22:37;;;;;;;86.40;40.57;;;;;;;;;;4396816;32;20241;-53
2022/01/11 14:25:05;;;;;;;21.50;10.70;;;;;;;;;;4397002;32;20273;-52
2022/01/11 14:27:32;;;;;;;10.87;7.30;;;;;;;;;;4396625;32;20230;-52
2022/01/11 14:30:06;;;;;;;15.93;9.23;;;;;;;;;;4399367;32;20229;-52
2022/01/11 14:32:32;;;;;;;20.37;9.40;;;;;;;;;;4403144;32;20371;-52
2022/01/11 14:35:06;;;;;;;19.83;9.20;;;;;;;;;;4387954;32;20253;-51
2022/01/11 14:37:34;;;;;;;18.63;8.90;;;;;;;;;;4397972;32;20375;-52
2022/01/11 14:40:01;;;;;;;13.23;7.37;;;;;;;;;;4387112;32;20388;-52
2022/01/11 14:42:33;;;;;;;8.07;5.10;;;;;;;;;;4402096;32;20294;-52
2022/01/11 14:45:21;;;;;;;9.57;5.67;;;;;;;;;;4397926;32;20273;-52